sensor_id;sensor_type;location;lat;lon;timestamp;P1;durP1;ratioP1;P2;durP2;ratioP2
44862;SDS011;30597;49.628;10.850;2023-02-15T00:01:30;4.80;;;4.40;;
44862;SDS011;30597;49.628;10.850;2023-02-15T00:03:56;4.43;;;4.03;;
44862;SDS011;30597;49.628;10.850;2023-02-15T00:06:22;4.63;;;4.23;;
44862;SDS011;30597;49.628;10.850;2023-02-15T00:08:47;5.70;;;5.10;;
44862;SDS011;30597;49.628;10.850;2023-02-15T00:11:14;5.03;;;4.57;;
44862;SDS011;30597;49.628;10.850;2023-02-15T00:13:41;4.73;;;4.23;;
44862;SDS011;30597;49.628;10.850;2023-02-15T00:16:09;4.67;;;4.27;;
44862;SDS011;30597;49.628;10.850;2023-02-15T00:18:36;5.13;;;4.60;;
44862;SDS011;30597;49.628;10.850;2023-02-15T00:21:03;4.43;;;3.90;;
44862;SDS011;30597;49.628;10.850;2023-02-15T00:23:30;5.10;;;4.60;;
44862;SDS011;30597;49.628;10.850;2023-02-15T00:26:05;4.37;;;3.97;;
44862;SDS011;30597;49.628;10.850;2023-02-15T00:28:32;5.17;;;4.67;;
44862;SDS011;30597;49.628;10.850;2023-02-15T00:33:30;5.20;;;4.70;;
44862;SDS011;30597;49.628;10.850;2023-02-15T00:35:57;4.90;;;4.40;;
44862;SDS011;30597;49.628;10.850;2023-02-15T00:38:23;4.30;;;3.90;;
44862;SDS011;30597;49.628;10.850;2023-02-15T00:40:52;5.17;;;4.67;;
44862;SDS011;30597;49.628;10.850;2023-02-15T00:43:19;4.30;;;3.90;;
44862;SDS011;30597;49.628;10.850;2023-02-15T00:45:45;4.37;;;3.97;;
44862;SDS011;30597;49.628;10.850;2023-02-15T00:48:11;4.47;;;4.07;;
44862;SDS011;30597;49.628;10.850;2023-02-15T00:50:36;4.00;;;3.50;;
44862;SDS011;30597;49.628;10.850;2023-02-15T00:53:02;4.27;;;3.87;;
44862;SDS011;30597;49.628;10.850;2023-02-15T00:55:27;4.87;;;4.40;;
44862;SDS011;30597;49.628;10.850;2023-02-15T00:57:53;5.37;;;4.87;;
44862;SDS011;30597;49.628;10.850;2023-02-15T01:00:18;4.40;;;4.00;;
44862;SDS011;30597;49.628;10.850;2023-02-15T01:02:44;4.23;;;3.83;;
44862;SDS011;30597;49.628;10.850;2023-02-15T01:05:09;4.70;;;4.30;;
44862;SDS011;30597;49.628;10.850;2023-02-15T01:07:35;5.20;;;3.87;;
44862;SDS011;30597;49.628;10.850;2023-02-15T01:10:01;4.07;;;3.63;;
44862;SDS011;30597;49.628;10.850;2023-02-15T01:12:26;4.60;;;3.97;;
44862;SDS011;30597;49.628;10.850;2023-02-15T01:14:52;4.30;;;3.90;;
44862;SDS011;30597;49.628;10.850;2023-02-15T01:17:17;4.30;;;3.90;;
44862;SDS011;30597;49.628;10.850;2023-02-15T01:19:43;4.50;;;4.10;;
44862;SDS011;30597;49.628;10.850;2023-02-15T01:22:08;4.03;;;3.33;;
44862;SDS011;30597;49.628;10.850;2023-02-15T01:24:34;4.10;;;3.70;;
44862;SDS011;30597;49.628;10.850;2023-02-15T01:26:59;4.50;;;3.97;;
44862;SDS011;30597;49.628;10.850;2023-02-15T01:29:25;4.63;;;4.20;;
44862;SDS011;30597;49.628;10.850;2023-02-15T01:31:50;4.87;;;4.40;;
44862;SDS011;30597;49.628;10.850;2023-02-15T01:34:16;4.00;;;3.60;;
44862;SDS011;30597;49.628;10.850;2023-02-15T01:36:42;4.30;;;3.70;;
44862;SDS011;30597;49.628;10.850;2023-02-15T01:39:07;4.33;;;3.93;;
44862;SDS011;30597;49.628;10.850;2023-02-15T01:41:34;4.10;;;3.70;;
44862;SDS011;30597;49.628;10.850;2023-02-15T01:44:00;4.20;;;3.80;;
44862;SDS011;30597;49.628;10.850;2023-02-15T01:46:30;4.10;;;3.70;;
44862;SDS011;30597;49.628;10.850;2023-02-15T01:49:11;4.00;;;3.53;;
44862;SDS011;30597;49.628;10.850;2023-02-15T01:51:42;4.30;;;3.90;;
44862;SDS011;30597;49.628;10.850;2023-02-15T01:54:17;3.67;;;3.37;;
44862;SDS011;30597;49.628;10.850;2023-02-15T01:57:05;3.87;;;3.57;;
44862;SDS011;30597;49.628;10.850;2023-02-15T01:59:35;4.30;;;3.90;;
44862;SDS011;30597;49.628;10.850;2023-02-15T02:02:04;4.03;;;3.63;;
44862;SDS011;30597;49.628;10.850;2023-02-15T02:04:37;3.80;;;3.50;;
44862;SDS011;30597;49.628;10.850;2023-02-15T02:07:06;3.97;;;3.60;;
44862;SDS011;30597;49.628;10.850;2023-02-15T02:09:35;4.40;;;4.00;;
44862;SDS011;30597;49.628;10.850;2023-02-15T02:12:01;4.00;;;3.70;;
44862;SDS011;30597;49.628;10.850;2023-02-15T02:14:27;3.63;;;3.33;;
44862;SDS011;30597;49.628;10.850;2023-02-15T02:20:10;3.60;;;3.30;;
44862;SDS011;30597;49.628;10.850;2023-02-15T02:28:20;3.83;;;3.43;;
44862;SDS011;30597;49.628;10.850;2023-02-15T02:36:31;4.30;;;3.90;;
44862;SDS011;30597;49.628;10.850;2023-02-15T02:39:18;3.60;;;3.30;;
44862;SDS011;30597;49.628;10.850;2023-02-15T02:42:06;3.50;;;3.20;;
44862;SDS011;30597;49.628;10.850;2023-02-15T02:44:47;3.87;;;3.57;;
44862;SDS011;30597;49.628;10.850;2023-02-15T02:47:32;4.03;;;3.63;;
44862;SDS011;30597;49.628;10.850;2023-02-15T02:50:04;3.60;;;3.20;;
44862;SDS011;30597;49.628;10.850;2023-02-15T02:57:47;3.37;;;3.07;;
44862;SDS011;30597;49.628;10.850;2023-02-15T03:00:18;3.47;;;3.17;;
44862;SDS011;30597;49.628;10.850;2023-02-15T03:02:46;3.87;;;3.50;;
44862;SDS011;30597;49.628;10.850;2023-02-15T03:05:15;4.23;;;3.87;;
44862;SDS011;30597;49.628;10.850;2023-02-15T03:07:46;3.57;;;3.30;;
44862;SDS011;30597;49.628;10.850;2023-02-15T03:10:15;3.17;;;2.67;;
44862;SDS011;30597;49.628;10.850;2023-02-15T03:12:43;3.90;;;3.50;;
44862;SDS011;30597;49.628;10.850;2023-02-15T03:15:10;3.60;;;3.30;;
44862;SDS011;30597;49.628;10.850;2023-02-15T03:18:15;3.50;;;3.20;;
44862;SDS011;30597;49.628;10.850;2023-02-15T03:20:44;3.20;;;2.90;;
44862;SDS011;30597;49.628;10.850;2023-02-15T03:23:12;3.97;;;3.67;;
44862;SDS011;30597;49.628;10.850;2023-02-15T03:25:42;3.90;;;3.50;;
44862;SDS011;30597;49.628;10.850;2023-02-15T03:28:13;3.70;;;3.20;;
44862;SDS011;30597;49.628;10.850;2023-02-15T03:30:48;3.83;;;3.53;;
44862;SDS011;30597;49.628;10.850;2023-02-15T03:33:19;3.20;;;2.90;;
44862;SDS011;30597;49.628;10.850;2023-02-15T03:35:53;3.47;;;3.07;;
44862;SDS011;30597;49.628;10.850;2023-02-15T03:38:29;3.13;;;2.57;;
44862;SDS011;30597;49.628;10.850;2023-02-15T03:41:00;3.70;;;3.30;;
44862;SDS011;30597;49.628;10.850;2023-02-15T03:43:42;3.67;;;3.20;;
44862;SDS011;30597;49.628;10.850;2023-02-15T03:46:20;3.70;;;3.40;;
44862;SDS011;30597;49.628;10.850;2023-02-15T03:49:14;3.50;;;3.20;;
44862;SDS011;30597;49.628;10.850;2023-02-15T03:51:55;3.20;;;2.90;;
44862;SDS011;30597;49.628;10.850;2023-02-15T03:54:27;4.00;;;3.37;;
44862;SDS011;30597;49.628;10.850;2023-02-15T03:57:09;3.67;;;3.37;;
44862;SDS011;30597;49.628;10.850;2023-02-15T03:59:57;3.37;;;3.07;;
44862;SDS011;30597;49.628;10.850;2023-02-15T04:03:07;3.80;;;3.37;;
44862;SDS011;30597;49.628;10.850;2023-02-15T04:05:36;3.77;;;3.47;;
44862;SDS011;30597;49.628;10.850;2023-02-15T04:08:02;3.40;;;3.10;;
44862;SDS011;30597;49.628;10.850;2023-02-15T04:10:27;3.53;;;3.23;;
44862;SDS011;30597;49.628;10.850;2023-02-15T04:13:11;3.40;;;3.10;;
44862;SDS011;30597;49.628;10.850;2023-02-15T04:15:37;2.90;;;2.60;;
44862;SDS011;30597;49.628;10.850;2023-02-15T04:18:21;3.63;;;3.33;;
44862;SDS011;30597;49.628;10.850;2023-02-15T04:21:06;3.03;;;2.70;;
44862;SDS011;30597;49.628;10.850;2023-02-15T04:23:50;3.23;;;2.93;;
44862;SDS011;30597;49.628;10.850;2023-02-15T04:26:34;3.30;;;3.00;;
44862;SDS011;30597;49.628;10.850;2023-02-15T04:29:00;3.13;;;2.83;;
44862;SDS011;30597;49.628;10.850;2023-02-15T04:31:25;3.00;;;2.77;;
44862;SDS011;30597;49.628;10.850;2023-02-15T04:33:51;3.77;;;3.37;;
44862;SDS011;30597;49.628;10.850;2023-02-15T04:36:16;3.20;;;2.90;;
44862;SDS011;30597;49.628;10.850;2023-02-15T04:38:42;3.37;;;2.90;;
44862;SDS011;30597;49.628;10.850;2023-02-15T04:41:07;3.40;;;3.10;;
44862;SDS011;30597;49.628;10.850;2023-02-15T04:43:35;2.60;;;2.40;;
44862;SDS011;30597;49.628;10.850;2023-02-15T04:46:01;4.00;;;3.00;;
44862;SDS011;30597;49.628;10.850;2023-02-15T04:48:26;2.90;;;2.60;;
44862;SDS011;30597;49.628;10.850;2023-02-15T04:50:52;3.20;;;2.93;;
44862;SDS011;30597;49.628;10.850;2023-02-15T04:53:18;3.47;;;3.20;;
44862;SDS011;30597;49.628;10.850;2023-02-15T04:55:43;3.00;;;2.70;;
44862;SDS011;30597;49.628;10.850;2023-02-15T04:58:09;3.30;;;3.00;;
44862;SDS011;30597;49.628;10.850;2023-02-15T05:00:34;3.10;;;2.80;;
44862;SDS011;30597;49.628;10.850;2023-02-15T05:03:00;3.50;;;3.20;;
44862;SDS011;30597;49.628;10.850;2023-02-15T05:05:26;2.60;;;2.40;;
44862;SDS011;30597;49.628;10.850;2023-02-15T05:07:51;2.80;;;2.60;;
44862;SDS011;30597;49.628;10.850;2023-02-15T05:10:17;3.20;;;2.90;;
44862;SDS011;30597;49.628;10.850;2023-02-15T05:12:42;3.63;;;3.00;;
44862;SDS011;30597;49.628;10.850;2023-02-15T05:15:08;3.20;;;2.90;;
44862;SDS011;30597;49.628;10.850;2023-02-15T05:17:34;2.97;;;2.77;;
44862;SDS011;30597;49.628;10.850;2023-02-15T05:20:01;2.70;;;2.50;;
44862;SDS011;30597;49.628;10.850;2023-02-15T05:22:26;3.00;;;2.70;;
44862;SDS011;30597;49.628;10.850;2023-02-15T05:24:52;3.10;;;2.60;;
44862;SDS011;30597;49.628;10.850;2023-02-15T05:27:36;3.33;;;2.93;;
44862;SDS011;30597;49.628;10.850;2023-02-15T05:30:20;2.80;;;2.60;;
44862;SDS011;30597;49.628;10.850;2023-02-15T05:32:46;2.93;;;2.50;;
44862;SDS011;30597;49.628;10.850;2023-02-15T05:35:12;2.70;;;2.50;;
44862;SDS011;30597;49.628;10.850;2023-02-15T05:37:40;2.80;;;2.53;;
44862;SDS011;30597;49.628;10.850;2023-02-15T05:40:06;3.03;;;2.73;;
44862;SDS011;30597;49.628;10.850;2023-02-15T05:42:32;2.63;;;2.43;;
44862;SDS011;30597;49.628;10.850;2023-02-15T05:44:57;3.17;;;2.87;;
44862;SDS011;30597;49.628;10.850;2023-02-15T05:47:23;3.30;;;2.80;;
44862;SDS011;30597;49.628;10.850;2023-02-15T05:49:48;2.37;;;2.17;;
44862;SDS011;30597;49.628;10.850;2023-02-15T05:52:14;3.40;;;3.10;;
44862;SDS011;30597;49.628;10.850;2023-02-15T05:54:39;3.17;;;2.20;;
44862;SDS011;30597;49.628;10.850;2023-02-15T05:57:05;2.30;;;2.10;;
44862;SDS011;30597;49.628;10.850;2023-02-15T05:59:30;2.70;;;2.50;;
44862;SDS011;30597;49.628;10.850;2023-02-15T06:01:56;2.50;;;2.30;;
44862;SDS011;30597;49.628;10.850;2023-02-15T06:04:21;2.80;;;2.60;;
44862;SDS011;30597;49.628;10.850;2023-02-15T06:06:47;2.17;;;1.90;;
44862;SDS011;30597;49.628;10.850;2023-02-15T06:09:13;2.60;;;2.40;;
44862;SDS011;30597;49.628;10.850;2023-02-15T06:11:38;2.47;;;2.20;;
44862;SDS011;30597;49.628;10.850;2023-02-15T06:14:04;2.70;;;2.50;;
44862;SDS011;30597;49.628;10.850;2023-02-15T06:16:30;2.93;;;2.20;;
44862;SDS011;30597;49.628;10.850;2023-02-15T06:18:56;2.80;;;2.60;;
44862;SDS011;30597;49.628;10.850;2023-02-15T06:21:21;3.30;;;3.00;;
44862;SDS011;30597;49.628;10.850;2023-02-15T06:23:47;2.83;;;2.47;;
44862;SDS011;30597;49.628;10.850;2023-02-15T06:26:12;2.67;;;2.47;;
44862;SDS011;30597;49.628;10.850;2023-02-15T06:28:38;2.80;;;2.27;;
44862;SDS011;30597;49.628;10.850;2023-02-15T06:31:06;2.67;;;2.40;;
44862;SDS011;30597;49.628;10.850;2023-02-15T06:33:31;2.40;;;2.20;;
44862;SDS011;30597;49.628;10.850;2023-02-15T06:35:58;2.90;;;2.60;;
44862;SDS011;30597;49.628;10.850;2023-02-15T06:38:24;2.40;;;2.10;;
44862;SDS011;30597;49.628;10.850;2023-02-15T06:40:50;2.53;;;2.23;;
44862;SDS011;30597;49.628;10.850;2023-02-15T06:43:15;2.17;;;1.97;;
44862;SDS011;30597;49.628;10.850;2023-02-15T06:45:41;2.60;;;2.40;;
44862;SDS011;30597;49.628;10.850;2023-02-15T06:48:07;2.60;;;2.40;;
44862;SDS011;30597;49.628;10.850;2023-02-15T06:50:33;3.23;;;2.93;;
44862;SDS011;30597;49.628;10.850;2023-02-15T06:52:59;2.53;;;2.33;;
44862;SDS011;30597;49.628;10.850;2023-02-15T06:55:25;2.33;;;2.13;;
44862;SDS011;30597;49.628;10.850;2023-02-15T06:57:51;2.40;;;2.20;;
44862;SDS011;30597;49.628;10.850;2023-02-15T07:00:16;2.07;;;1.97;;
44862;SDS011;30597;49.628;10.850;2023-02-15T07:02:43;3.67;;;2.50;;
44862;SDS011;30597;49.628;10.850;2023-02-15T07:05:09;2.80;;;2.60;;
44862;SDS011;30597;49.628;10.850;2023-02-15T07:07:35;2.60;;;2.40;;
44862;SDS011;30597;49.628;10.850;2023-02-15T07:10:00;2.93;;;2.73;;
44862;SDS011;30597;49.628;10.850;2023-02-15T07:12:26;3.50;;;3.20;;
44862;SDS011;30597;49.628;10.850;2023-02-15T07:15:11;2.80;;;2.50;;
44862;SDS011;30597;49.628;10.850;2023-02-15T07:17:39;3.20;;;2.90;;
44862;SDS011;30597;49.628;10.850;2023-02-15T07:20:06;3.37;;;3.07;;
44862;SDS011;30597;49.628;10.850;2023-02-15T07:22:35;3.33;;;3.03;;
44862;SDS011;30597;49.628;10.850;2023-02-15T07:25:02;4.00;;;3.60;;
44862;SDS011;30597;49.628;10.850;2023-02-15T07:27:28;3.93;;;3.53;;
44862;SDS011;30597;49.628;10.850;2023-02-15T07:29:55;3.73;;;3.43;;
44862;SDS011;30597;49.628;10.850;2023-02-15T07:32:21;5.00;;;4.60;;
44862;SDS011;30597;49.628;10.850;2023-02-15T07:34:46;4.43;;;4.03;;
44862;SDS011;30597;49.628;10.850;2023-02-15T07:37:12;5.03;;;4.43;;
44862;SDS011;30597;49.628;10.850;2023-02-15T07:39:37;4.27;;;3.87;;
44862;SDS011;30597;49.628;10.850;2023-02-15T07:42:03;4.93;;;4.43;;
44862;SDS011;30597;49.628;10.850;2023-02-15T07:44:28;4.63;;;4.17;;
44862;SDS011;30597;49.628;10.850;2023-02-15T07:46:54;6.17;;;5.27;;
44862;SDS011;30597;49.628;10.850;2023-02-15T07:49:19;5.33;;;4.83;;
44862;SDS011;30597;49.628;10.850;2023-02-15T07:51:45;5.90;;;5.33;;
44862;SDS011;30597;49.628;10.850;2023-02-15T07:54:13;6.00;;;5.40;;
44862;SDS011;30597;49.628;10.850;2023-02-15T07:56:39;6.43;;;5.83;;
44862;SDS011;30597;49.628;10.850;2023-02-15T07:59:05;5.20;;;4.80;;
44862;SDS011;30597;49.628;10.850;2023-02-15T08:01:31;6.53;;;5.57;;
44862;SDS011;30597;49.628;10.850;2023-02-15T08:03:58;6.60;;;5.93;;
44862;SDS011;30597;49.628;10.850;2023-02-15T08:06:25;6.47;;;5.87;;
44862;SDS011;30597;49.628;10.850;2023-02-15T08:08:52;7.90;;;7.13;;
44862;SDS011;30597;49.628;10.850;2023-02-15T08:11:25;6.40;;;5.80;;
44862;SDS011;30597;49.628;10.850;2023-02-15T08:14:01;6.30;;;5.70;;
44862;SDS011;30597;49.628;10.850;2023-02-15T08:19:04;6.63;;;6.03;;
44862;SDS011;30597;49.628;10.850;2023-02-15T08:21:30;8.10;;;7.30;;
44862;SDS011;30597;49.628;10.850;2023-02-15T08:23:57;6.93;;;6.33;;
44862;SDS011;30597;49.628;10.850;2023-02-15T08:26:23;8.03;;;7.23;;
44862;SDS011;30597;49.628;10.850;2023-02-15T08:28:50;7.63;;;6.93;;
44862;SDS011;30597;49.628;10.850;2023-02-15T08:31:16;8.33;;;7.37;;
44862;SDS011;30597;49.628;10.850;2023-02-15T08:33:43;7.60;;;6.90;;
44862;SDS011;30597;49.628;10.850;2023-02-15T08:36:11;8.57;;;7.87;;
44862;SDS011;30597;49.628;10.850;2023-02-15T08:38:38;8.20;;;7.40;;
44862;SDS011;30597;49.628;10.850;2023-02-15T08:41:12;7.80;;;7.00;;
44862;SDS011;30597;49.628;10.850;2023-02-15T08:43:38;7.53;;;6.83;;
44862;SDS011;30597;49.628;10.850;2023-02-15T08:46:04;7.90;;;7.20;;
44862;SDS011;30597;49.628;10.850;2023-02-15T08:48:30;7.83;;;7.10;;
44862;SDS011;30597;49.628;10.850;2023-02-15T08:50:56;7.90;;;7.10;;
44862;SDS011;30597;49.628;10.850;2023-02-15T08:53:21;8.13;;;7.43;;
44862;SDS011;30597;49.628;10.850;2023-02-15T08:55:54;7.13;;;6.43;;
44862;SDS011;30597;49.628;10.850;2023-02-15T08:58:23;7.10;;;6.40;;
44862;SDS011;30597;49.628;10.850;2023-02-15T09:00:49;7.97;;;7.17;;
44862;SDS011;30597;49.628;10.850;2023-02-15T09:03:15;6.70;;;6.10;;
44862;SDS011;30597;49.628;10.850;2023-02-15T09:05:40;7.50;;;6.80;;
44862;SDS011;30597;49.628;10.850;2023-02-15T09:08:06;7.57;;;6.90;;
44862;SDS011;30597;49.628;10.850;2023-02-15T09:10:32;7.57;;;6.80;;
44862;SDS011;30597;49.628;10.850;2023-02-15T09:12:57;7.30;;;6.70;;
44862;SDS011;30597;49.628;10.850;2023-02-15T09:15:23;6.93;;;6.23;;
44862;SDS011;30597;49.628;10.850;2023-02-15T09:17:48;6.93;;;6.30;;
44862;SDS011;30597;49.628;10.850;2023-02-15T09:20:14;7.23;;;6.53;;
44862;SDS011;30597;49.628;10.850;2023-02-15T09:22:39;7.53;;;6.73;;
44862;SDS011;30597;49.628;10.850;2023-02-15T09:25:05;6.53;;;5.90;;
44862;SDS011;30597;49.628;10.850;2023-02-15T09:27:31;7.07;;;6.37;;
44862;SDS011;30597;49.628;10.850;2023-02-15T09:29:56;7.13;;;6.40;;
44862;SDS011;30597;49.628;10.850;2023-02-15T09:32:22;7.37;;;6.67;;
44862;SDS011;30597;49.628;10.850;2023-02-15T09:34:47;7.30;;;6.70;;
44862;SDS011;30597;49.628;10.850;2023-02-15T09:37:13;7.33;;;6.70;;
44862;SDS011;30597;49.628;10.850;2023-02-15T09:39:39;6.93;;;6.33;;
44862;SDS011;30597;49.628;10.850;2023-02-15T09:44:57;8.23;;;7.43;;
44862;SDS011;30597;49.628;10.850;2023-02-15T09:56:33;7.00;;;6.37;;
44862;SDS011;30597;49.628;10.850;2023-02-15T10:13:48;6.90;;;6.20;;
44862;SDS011;30597;49.628;10.850;2023-02-15T10:19:25;6.63;;;6.03;;
44862;SDS011;30597;49.628;10.850;2023-02-15T10:22:02;7.73;;;7.00;;
44862;SDS011;30597;49.628;10.850;2023-02-15T10:24:56;6.83;;;6.13;;
44862;SDS011;30597;49.628;10.850;2023-02-15T10:27:36;6.50;;;5.60;;
44862;SDS011;30597;49.628;10.850;2023-02-15T10:33:16;6.40;;;5.80;;
44862;SDS011;30597;49.628;10.850;2023-02-15T10:38:37;5.90;;;5.30;;
44862;SDS011;30597;49.628;10.850;2023-02-15T10:41:24;6.20;;;5.60;;
44862;SDS011;30597;49.628;10.850;2023-02-15T10:47:09;7.10;;;6.40;;
44862;SDS011;30597;49.628;10.850;2023-02-15T10:50:01;5.63;;;5.13;;
44862;SDS011;30597;49.628;10.850;2023-02-15T11:00:44;5.60;;;5.00;;
44862;SDS011;30597;49.628;10.850;2023-02-15T11:06:03;7.00;;;5.90;;
44862;SDS011;30597;49.628;10.850;2023-02-15T11:08:37;6.40;;;5.50;;
44862;SDS011;30597;49.628;10.850;2023-02-15T11:11:16;6.07;;;5.30;;
44862;SDS011;30597;49.628;10.850;2023-02-15T11:13:56;6.47;;;5.87;;
44862;SDS011;30597;49.628;10.850;2023-02-15T11:16:30;6.80;;;6.10;;
44862;SDS011;30597;49.628;10.850;2023-02-15T11:19:15;6.97;;;5.73;;
44862;SDS011;30597;49.628;10.850;2023-02-15T11:21:59;9.10;;;6.90;;
44862;SDS011;30597;49.628;10.850;2023-02-15T11:24:28;9.83;;;6.50;;
44862;SDS011;30597;49.628;10.850;2023-02-15T11:31:54;7.23;;;6.37;;
44862;SDS011;30597;49.628;10.850;2023-02-15T11:34:48;8.60;;;7.50;;
44862;SDS011;30597;49.628;10.850;2023-02-15T11:37:21;8.60;;;6.70;;
44862;SDS011;30597;49.628;10.850;2023-02-15T11:39:53;8.77;;;7.80;;
44862;SDS011;30597;49.628;10.850;2023-02-15T11:42:20;9.33;;;7.50;;
44862;SDS011;30597;49.628;10.850;2023-02-15T11:47:44;11.50;;;7.10;;
44862;SDS011;30597;49.628;10.850;2023-02-15T11:50:21;8.90;;;7.13;;
44862;SDS011;30597;49.628;10.850;2023-02-15T11:52:54;8.53;;;7.40;;
44862;SDS011;30597;49.628;10.850;2023-02-15T11:55:24;10.97;;;8.33;;
44862;SDS011;30597;49.628;10.850;2023-02-15T11:57:59;8.60;;;7.00;;
44862;SDS011;30597;49.628;10.850;2023-02-15T12:00:32;8.13;;;7.33;;
44862;SDS011;30597;49.628;10.850;2023-02-15T12:03:14;9.67;;;7.30;;
44862;SDS011;30597;49.628;10.850;2023-02-15T12:05:45;8.77;;;7.40;;
44862;SDS011;30597;49.628;10.850;2023-02-15T12:11:02;12.07;;;8.87;;
44862;SDS011;30597;49.628;10.850;2023-02-15T12:13:32;10.20;;;7.97;;
44862;SDS011;30597;49.628;10.850;2023-02-15T12:15:58;11.47;;;8.07;;
44862;SDS011;30597;49.628;10.850;2023-02-15T12:18:39;9.90;;;8.53;;
44862;SDS011;30597;49.628;10.850;2023-02-15T12:21:10;8.40;;;7.60;;
44862;SDS011;30597;49.628;10.850;2023-02-15T12:23:48;10.40;;;8.80;;
44862;SDS011;30597;49.628;10.850;2023-02-15T12:26:23;9.00;;;8.20;;
44862;SDS011;30597;49.628;10.850;2023-02-15T12:28:52;10.03;;;8.20;;
44862;SDS011;30597;49.628;10.850;2023-02-15T12:31:24;12.63;;;8.60;;
44862;SDS011;30597;49.628;10.850;2023-02-15T12:34:12;11.03;;;8.60;;
44862;SDS011;30597;49.628;10.850;2023-02-15T12:36:55;8.53;;;7.53;;
44862;SDS011;30597;49.628;10.850;2023-02-15T12:44:26;10.10;;;9.10;;
44862;SDS011;30597;49.628;10.850;2023-02-15T12:47:02;10.57;;;9.47;;
44862;SDS011;30597;49.628;10.850;2023-02-15T12:49:33;11.03;;;9.23;;
44862;SDS011;30597;49.628;10.850;2023-02-15T12:52:03;10.87;;;9.13;;
44862;SDS011;30597;49.628;10.850;2023-02-15T12:54:34;10.53;;;9.33;;
44862;SDS011;30597;49.628;10.850;2023-02-15T12:59:53;11.10;;;8.63;;
44862;SDS011;30597;49.628;10.850;2023-02-15T13:02:23;11.60;;;10.07;;
44862;SDS011;30597;49.628;10.850;2023-02-15T13:05:10;10.70;;;9.60;;
44862;SDS011;30597;49.628;10.850;2023-02-15T13:07:45;10.40;;;9.50;;
44862;SDS011;30597;49.628;10.850;2023-02-15T13:10:33;11.90;;;10.57;;
44862;SDS011;30597;49.628;10.850;2023-02-15T13:13:10;10.57;;;9.47;;
44862;SDS011;30597;49.628;10.850;2023-02-15T13:15:42;11.17;;;10.13;;
44862;SDS011;30597;49.628;10.850;2023-02-15T13:18:13;12.20;;;10.30;;
44862;SDS011;30597;49.628;10.850;2023-02-15T13:20:53;10.50;;;8.83;;
44862;SDS011;30597;49.628;10.850;2023-02-15T13:23:22;11.10;;;8.87;;
44862;SDS011;30597;49.628;10.850;2023-02-15T13:25:52;13.47;;;10.30;;
44862;SDS011;30597;49.628;10.850;2023-02-15T13:28:22;11.40;;;10.20;;
44862;SDS011;30597;49.628;10.850;2023-02-15T13:30:56;10.70;;;9.40;;
44862;SDS011;30597;49.628;10.850;2023-02-15T13:33:34;10.93;;;9.53;;
44862;SDS011;30597;49.628;10.850;2023-02-15T13:38:46;8.87;;;7.97;;
44862;SDS011;30597;49.628;10.850;2023-02-15T13:41:30;11.80;;;9.50;;
44862;SDS011;30597;49.628;10.850;2023-02-15T13:44:03;10.10;;;8.53;;
44862;SDS011;30597;49.628;10.850;2023-02-15T13:47:02;11.80;;;10.20;;
44862;SDS011;30597;49.628;10.850;2023-02-15T13:57:38;11.30;;;9.27;;
44862;SDS011;30597;49.628;10.850;2023-02-15T14:12:09;9.90;;;8.90;;
44862;SDS011;30597;49.628;10.850;2023-02-15T14:20:41;9.37;;;8.37;;
44862;SDS011;30597;49.628;10.850;2023-02-15T14:23:21;9.43;;;8.50;;
44862;SDS011;30597;49.628;10.850;2023-02-15T14:28:46;8.73;;;7.83;;
44862;SDS011;30597;49.628;10.850;2023-02-15T14:31:41;9.37;;;7.80;;
44862;SDS011;30597;49.628;10.850;2023-02-15T14:34:18;8.97;;;7.50;;
44862;SDS011;30597;49.628;10.850;2023-02-15T14:36:44;9.40;;;8.30;;
44862;SDS011;30597;49.628;10.850;2023-02-15T14:39:29;9.47;;;8.47;;
44862;SDS011;30597;49.628;10.850;2023-02-15T14:42:34;9.03;;;8.13;;
44862;SDS011;30597;49.628;10.850;2023-02-15T14:47:52;9.50;;;8.50;;
44862;SDS011;30597;49.628;10.850;2023-02-15T14:55:40;8.90;;;7.43;;
44862;SDS011;30597;49.628;10.850;2023-02-15T14:58:09;8.23;;;7.20;;
44862;SDS011;30597;49.628;10.850;2023-02-15T15:00:37;8.77;;;7.80;;
44862;SDS011;30597;49.628;10.850;2023-02-15T15:03:10;9.20;;;8.10;;
44862;SDS011;30597;49.628;10.850;2023-02-15T15:05:47;9.60;;;8.60;;
44862;SDS011;30597;49.628;10.850;2023-02-15T15:08:26;9.43;;;8.03;;
44862;SDS011;30597;49.628;10.850;2023-02-15T15:13:57;8.60;;;7.20;;
44862;SDS011;30597;49.628;10.850;2023-02-15T15:16:30;9.03;;;7.57;;
44862;SDS011;30597;49.628;10.850;2023-02-15T15:19:10;8.10;;;7.10;;
44862;SDS011;30597;49.628;10.850;2023-02-15T15:35:23;7.70;;;6.90;;
44862;SDS011;30597;49.628;10.850;2023-02-15T15:37:58;8.30;;;7.40;;
44862;SDS011;30597;49.628;10.850;2023-02-15T15:48:35;9.87;;;8.17;;
44862;SDS011;30597;49.628;10.850;2023-02-15T15:51:05;8.73;;;7.67;;
44862;SDS011;30597;49.628;10.850;2023-02-15T15:53:50;8.23;;;7.37;;
44862;SDS011;30597;49.628;10.850;2023-02-15T15:56:25;6.90;;;6.20;;
44862;SDS011;30597;49.628;10.850;2023-02-15T15:58:58;8.00;;;6.87;;
44862;SDS011;30597;49.628;10.850;2023-02-15T16:01:29;7.33;;;6.63;;
44862;SDS011;30597;49.628;10.850;2023-02-15T16:03:56;7.37;;;6.63;;
44862;SDS011;30597;49.628;10.850;2023-02-15T16:06:41;7.00;;;6.30;;
44862;SDS011;30597;49.628;10.850;2023-02-15T16:09:14;8.50;;;7.57;;
44862;SDS011;30597;49.628;10.850;2023-02-15T16:11:46;7.93;;;7.23;;
44862;SDS011;30597;49.628;10.850;2023-02-15T16:14:16;8.23;;;7.43;;
44862;SDS011;30597;49.628;10.850;2023-02-15T16:17:03;6.47;;;5.73;;
44862;SDS011;30597;49.628;10.850;2023-02-15T16:19:38;7.30;;;6.60;;
44862;SDS011;30597;49.628;10.850;2023-02-15T16:22:07;7.37;;;6.67;;
44862;SDS011;30597;49.628;10.850;2023-02-15T16:27:43;7.83;;;7.00;;
44862;SDS011;30597;49.628;10.850;2023-02-15T16:30:18;6.60;;;6.10;;
44862;SDS011;30597;49.628;10.850;2023-02-15T16:33:12;7.60;;;6.80;;
44862;SDS011;30597;49.628;10.850;2023-02-15T16:35:38;6.70;;;6.10;;
44862;SDS011;30597;49.628;10.850;2023-02-15T16:38:05;7.23;;;6.53;;
44862;SDS011;30597;49.628;10.850;2023-02-15T16:43:04;7.67;;;6.80;;
44862;SDS011;30597;49.628;10.850;2023-02-15T16:45:32;7.90;;;6.97;;
44862;SDS011;30597;49.628;10.850;2023-02-15T16:48:01;8.03;;;6.50;;
44862;SDS011;30597;49.628;10.850;2023-02-15T16:50:33;7.30;;;6.60;;
44862;SDS011;30597;49.628;10.850;2023-02-15T16:53:02;7.63;;;6.60;;
44862;SDS011;30597;49.628;10.850;2023-02-15T16:55:33;8.50;;;7.60;;
44862;SDS011;30597;49.628;10.850;2023-02-15T16:58:04;7.83;;;7.13;;
44862;SDS011;30597;49.628;10.850;2023-02-15T17:00:32;7.30;;;6.60;;
44862;SDS011;30597;49.628;10.850;2023-02-15T17:03:02;6.87;;;6.20;;
44862;SDS011;30597;49.628;10.850;2023-02-15T17:05:32;8.07;;;7.20;;
44862;SDS011;30597;49.628;10.850;2023-02-15T17:13:23;7.80;;;7.03;;
44862;SDS011;30597;49.628;10.850;2023-02-15T17:18:24;9.30;;;8.30;;
44862;SDS011;30597;49.628;10.850;2023-02-15T17:20:57;8.07;;;7.30;;
44862;SDS011;30597;49.628;10.850;2023-02-15T17:25:56;7.83;;;7.03;;
44862;SDS011;30597;49.628;10.850;2023-02-15T17:28:28;8.13;;;7.33;;
44862;SDS011;30597;49.628;10.850;2023-02-15T17:30:55;8.03;;;7.33;;
44862;SDS011;30597;49.628;10.850;2023-02-15T17:33:24;8.13;;;7.10;;
44862;SDS011;30597;49.628;10.850;2023-02-15T17:38:28;8.87;;;7.97;;
44862;SDS011;30597;49.628;10.850;2023-02-15T17:40:53;9.33;;;7.80;;
44862;SDS011;30597;49.628;10.850;2023-02-15T17:43:19;8.33;;;7.53;;
44862;SDS011;30597;49.628;10.850;2023-02-15T17:45:48;8.30;;;7.50;;
44862;SDS011;30597;49.628;10.850;2023-02-15T17:48:20;8.93;;;8.00;;
44862;SDS011;30597;49.628;10.850;2023-02-15T17:50:56;9.03;;;8.13;;